sensor_id;sensor_type;location;lat;lon;timestamp;P1;durP1;ratioP1;P2;durP2;ratioP2
33926;SDS011;20485;50.992;5.550;2023-06-26T00:00:24;9.55;;;7.60;;
33926;SDS011;20485;50.992;5.550;2023-06-26T00:02:50;11.35;;;7.50;;
33926;SDS011;20485;50.992;5.550;2023-06-26T00:05:16;12.07;;;7.18;;
33926;SDS011;20485;50.992;5.550;2023-06-26T00:07:42;10.40;;;8.32;;
33926;SDS011;20485;50.992;5.550;2023-06-26T00:10:08;11.02;;;7.70;;
33926;SDS011;20485;50.992;5.550;2023-06-26T00:12:33;11.27;;;7.78;;
33926;SDS011;20485;50.992;5.550;2023-06-26T00:14:59;13.27;;;7.63;;
33926;SDS011;20485;50.992;5.550;2023-06-26T00:17:25;12.30;;;7.90;;
33926;SDS011;20485;50.992;5.550;2023-06-26T00:19:51;12.35;;;7.47;;
33926;SDS011;20485;50.992;5.550;2023-06-26T00:22:16;10.82;;;8.07;;
33926;SDS011;20485;50.992;5.550;2023-06-26T00:24:42;8.30;;;6.93;;
33926;SDS011;20485;50.992;5.550;2023-06-26T00:27:10;12.98;;;8.02;;
33926;SDS011;20485;50.992;5.550;2023-06-26T00:29:35;12.32;;;7.80;;
33926;SDS011;20485;50.992;5.550;2023-06-26T00:32:03;13.60;;;7.70;;
33926;SDS011;20485;50.992;5.550;2023-06-26T00:34:29;15.63;;;8.02;;
33926;SDS011;20485;50.992;5.550;2023-06-26T00:36:55;12.98;;;6.90;;
33926;SDS011;20485;50.992;5.550;2023-06-26T00:39:21;11.50;;;7.47;;
33926;SDS011;20485;50.992;5.550;2023-06-26T00:41:46;12.93;;;7.63;;
33926;SDS011;20485;50.992;5.550;2023-06-26T00:44:12;11.75;;;7.07;;
33926;SDS011;20485;50.992;5.550;2023-06-26T00:46:38;11.05;;;6.95;;
33926;SDS011;20485;50.992;5.550;2023-06-26T00:49:04;13.82;;;7.40;;
33926;SDS011;20485;50.992;5.550;2023-06-26T00:51:30;9.45;;;6.40;;
33926;SDS011;20485;50.992;5.550;2023-06-26T00:53:56;19.73;;;6.75;;
33926;SDS011;20485;50.992;5.550;2023-06-26T00:56:22;9.43;;;5.97;;
33926;SDS011;20485;50.992;5.550;2023-06-26T00:58:48;11.77;;;6.65;;
33926;SDS011;20485;50.992;5.550;2023-06-26T01:01:14;9.02;;;5.70;;
33926;SDS011;20485;50.992;5.550;2023-06-26T01:03:45;11.43;;;6.07;;
33926;SDS011;20485;50.992;5.550;2023-06-26T01:08:42;8.75;;;6.10;;
33926;SDS011;20485;50.992;5.550;2023-06-26T01:11:09;9.63;;;6.10;;
33926;SDS011;20485;50.992;5.550;2023-06-26T01:13:35;8.40;;;5.50;;
33926;SDS011;20485;50.992;5.550;2023-06-26T01:16:01;10.95;;;5.93;;
33926;SDS011;20485;50.992;5.550;2023-06-26T01:18:28;10.85;;;5.32;;
33926;SDS011;20485;50.992;5.550;2023-06-26T01:20:55;8.60;;;5.80;;
33926;SDS011;20485;50.992;5.550;2023-06-26T01:23:37;8.07;;;5.72;;
33926;SDS011;20485;50.992;5.550;2023-06-26T01:26:26;8.15;;;5.75;;
33926;SDS011;20485;50.992;5.550;2023-06-26T01:28:54;14.63;;;5.20;;
33926;SDS011;20485;50.992;5.550;2023-06-26T01:31:22;6.45;;;4.63;;
33926;SDS011;20485;50.992;5.550;2023-06-26T01:33:48;9.93;;;5.43;;
33926;SDS011;20485;50.992;5.550;2023-06-26T01:36:15;9.35;;;5.50;;
33926;SDS011;20485;50.992;5.550;2023-06-26T01:38:41;9.25;;;4.95;;
33926;SDS011;20485;50.992;5.550;2023-06-26T01:41:07;10.95;;;5.40;;
33926;SDS011;20485;50.992;5.550;2023-06-26T01:51:58;7.80;;;5.05;;
33926;SDS011;20485;50.992;5.550;2023-06-26T01:54:42;6.57;;;5.15;;
33926;SDS011;20485;50.992;5.550;2023-06-26T01:57:31;6.88;;;5.45;;
33926;SDS011;20485;50.992;5.550;2023-06-26T01:59:57;8.30;;;4.75;;
33926;SDS011;20485;50.992;5.550;2023-06-26T02:02:24;7.93;;;5.10;;
33926;SDS011;20485;50.992;5.550;2023-06-26T02:04:50;13.48;;;5.45;;
33926;SDS011;20485;50.992;5.550;2023-06-26T02:07:16;8.63;;;4.70;;
33926;SDS011;20485;50.992;5.550;2023-06-26T02:09:41;11.20;;;4.80;;
33926;SDS011;20485;50.992;5.550;2023-06-26T02:12:08;7.55;;;4.70;;
33926;SDS011;20485;50.992;5.550;2023-06-26T02:14:34;7.80;;;5.25;;
33926;SDS011;20485;50.992;5.550;2023-06-26T02:16:59;6.68;;;5.00;;
33926;SDS011;20485;50.992;5.550;2023-06-26T02:19:25;8.73;;;4.68;;
33926;SDS011;20485;50.992;5.550;2023-06-26T02:21:52;9.05;;;4.97;;
33926;SDS011;20485;50.992;5.550;2023-06-26T02:24:18;9.73;;;4.80;;
33926;SDS011;20485;50.992;5.550;2023-06-26T02:26:44;23.60;;;5.43;;
33926;SDS011;20485;50.992;5.550;2023-06-26T02:29:11;10.48;;;4.95;;
33926;SDS011;20485;50.992;5.550;2023-06-26T02:31:39;8.75;;;4.72;;
33926;SDS011;20485;50.992;5.550;2023-06-26T02:34:05;10.27;;;4.70;;
33926;SDS011;20485;50.992;5.550;2023-06-26T02:36:31;9.48;;;4.07;;
33926;SDS011;20485;50.992;5.550;2023-06-26T02:38:57;6.38;;;4.20;;
33926;SDS011;20485;50.992;5.550;2023-06-26T02:41:23;8.20;;;4.50;;
33926;SDS011;20485;50.992;5.550;2023-06-26T02:43:48;18.08;;;4.60;;
33926;SDS011;20485;50.992;5.550;2023-06-26T02:46:14;9.70;;;4.32;;
33926;SDS011;20485;50.992;5.550;2023-06-26T02:48:39;9.15;;;4.60;;
33926;SDS011;20485;50.992;5.550;2023-06-26T02:51:05;6.43;;;4.57;;
33926;SDS011;20485;50.992;5.550;2023-06-26T02:53:32;14.43;;;4.22;;
33926;SDS011;20485;50.992;5.550;2023-06-26T02:55:57;18.48;;;5.07;;
33926;SDS011;20485;50.992;5.550;2023-06-26T02:58:23;7.78;;;4.75;;
33926;SDS011;20485;50.992;5.550;2023-06-26T03:00:49;12.38;;;5.03;;
33926;SDS011;20485;50.992;5.550;2023-06-26T03:03:15;5.60;;;4.15;;
33926;SDS011;20485;50.992;5.550;2023-06-26T03:05:40;7.57;;;5.10;;
33926;SDS011;20485;50.992;5.550;2023-06-26T03:08:06;9.55;;;5.13;;
33926;SDS011;20485;50.992;5.550;2023-06-26T03:10:32;8.90;;;4.68;;
33926;SDS011;20485;50.992;5.550;2023-06-26T03:12:57;7.20;;;4.20;;
33926;SDS011;20485;50.992;5.550;2023-06-26T03:15:23;8.75;;;4.00;;
33926;SDS011;20485;50.992;5.550;2023-06-26T03:17:48;11.57;;;4.13;;
33926;SDS011;20485;50.992;5.550;2023-06-26T03:20:14;9.23;;;4.15;;
33926;SDS011;20485;50.992;5.550;2023-06-26T03:22:40;9.48;;;4.13;;
33926;SDS011;20485;50.992;5.550;2023-06-26T03:25:06;7.95;;;3.97;;
33926;SDS011;20485;50.992;5.550;2023-06-26T03:27:32;8.50;;;3.83;;
33926;SDS011;20485;50.992;5.550;2023-06-26T03:29:58;8.38;;;4.20;;
33926;SDS011;20485;50.992;5.550;2023-06-26T03:32:23;9.93;;;3.80;;
33926;SDS011;20485;50.992;5.550;2023-06-26T03:34:49;14.13;;;4.05;;
33926;SDS011;20485;50.992;5.550;2023-06-26T03:37:14;8.27;;;4.07;;
33926;SDS011;20485;50.992;5.550;2023-06-26T03:39:40;7.43;;;4.07;;
33926;SDS011;20485;50.992;5.550;2023-06-26T03:42:06;13.68;;;4.05;;
33926;SDS011;20485;50.992;5.550;2023-06-26T03:44:32;7.43;;;3.80;;
33926;SDS011;20485;50.992;5.550;2023-06-26T03:46:58;7.93;;;4.03;;
33926;SDS011;20485;50.992;5.550;2023-06-26T03:49:23;6.38;;;4.40;;
33926;SDS011;20485;50.992;5.550;2023-06-26T03:51:49;9.35;;;4.03;;
33926;SDS011;20485;50.992;5.550;2023-06-26T03:54:15;11.23;;;4.07;;
33926;SDS011;20485;50.992;5.550;2023-06-26T03:56:40;9.68;;;3.97;;
33926;SDS011;20485;50.992;5.550;2023-06-26T03:59:06;11.88;;;4.57;;
33926;SDS011;20485;50.992;5.550;2023-06-26T04:01:32;7.85;;;3.80;;
33926;SDS011;20485;50.992;5.550;2023-06-26T04:03:57;8.15;;;3.05;;
33926;SDS011;20485;50.992;5.550;2023-06-26T04:06:25;10.93;;;3.92;;
33926;SDS011;20485;50.992;5.550;2023-06-26T04:08:50;7.47;;;3.70;;
33926;SDS011;20485;50.992;5.550;2023-06-26T04:11:17;8.63;;;3.92;;
33926;SDS011;20485;50.992;5.550;2023-06-26T04:13:43;6.20;;;3.17;;
33926;SDS011;20485;50.992;5.550;2023-06-26T04:16:09;7.90;;;3.78;;
33926;SDS011;20485;50.992;5.550;2023-06-26T04:18:36;11.43;;;4.63;;
33926;SDS011;20485;50.992;5.550;2023-06-26T04:21:06;13.75;;;3.67;;
33926;SDS011;20485;50.992;5.550;2023-06-26T04:23:37;8.25;;;4.10;;
33926;SDS011;20485;50.992;5.550;2023-06-26T04:26:03;7.10;;;3.55;;
33926;SDS011;20485;50.992;5.550;2023-06-26T04:28:33;10.23;;;3.83;;
33926;SDS011;20485;50.992;5.550;2023-06-26T04:31:00;6.25;;;3.80;;
33926;SDS011;20485;50.992;5.550;2023-06-26T04:33:26;11.45;;;3.78;;
33926;SDS011;20485;50.992;5.550;2023-06-26T04:35:52;13.55;;;3.50;;
33926;SDS011;20485;50.992;5.550;2023-06-26T04:38:18;9.95;;;3.25;;
33926;SDS011;20485;50.992;5.550;2023-06-26T04:40:44;6.50;;;3.75;;
33926;SDS011;20485;50.992;5.550;2023-06-26T04:43:10;6.75;;;3.20;;
33926;SDS011;20485;50.992;5.550;2023-06-26T04:45:36;8.00;;;3.42;;
33926;SDS011;20485;50.992;5.550;2023-06-26T04:48:02;8.20;;;3.25;;
33926;SDS011;20485;50.992;5.550;2023-06-26T04:50:28;9.35;;;3.35;;
33926;SDS011;20485;50.992;5.550;2023-06-26T04:52:56;10.68;;;3.65;;
33926;SDS011;20485;50.992;5.550;2023-06-26T04:55:23;10.02;;;3.60;;
33926;SDS011;20485;50.992;5.550;2023-06-26T04:57:49;10.98;;;3.40;;
33926;SDS011;20485;50.992;5.550;2023-06-26T05:00:15;14.43;;;3.95;;
33926;SDS011;20485;50.992;5.550;2023-06-26T05:02:41;17.27;;;3.63;;
33926;SDS011;20485;50.992;5.550;2023-06-26T05:05:07;8.85;;;3.45;;
33926;SDS011;20485;50.992;5.550;2023-06-26T05:07:33;11.52;;;3.60;;
33926;SDS011;20485;50.992;5.550;2023-06-26T05:09:58;7.97;;;3.47;;
33926;SDS011;20485;50.992;5.550;2023-06-26T05:12:24;10.88;;;3.80;;
33926;SDS011;20485;50.992;5.550;2023-06-26T05:14:50;11.57;;;3.67;;
33926;SDS011;20485;50.992;5.550;2023-06-26T05:17:15;15.20;;;4.10;;
33926;SDS011;20485;50.992;5.550;2023-06-26T05:19:41;11.73;;;4.25;;
33926;SDS011;20485;50.992;5.550;2023-06-26T05:22:07;8.85;;;3.50;;
33926;SDS011;20485;50.992;5.550;2023-06-26T05:24:34;17.90;;;4.32;;
33926;SDS011;20485;50.992;5.550;2023-06-26T05:27:01;7.55;;;3.25;;
33926;SDS011;20485;50.992;5.550;2023-06-26T05:29:27;12.80;;;4.30;;
33926;SDS011;20485;50.992;5.550;2023-06-26T05:31:55;11.98;;;3.90;;
33926;SDS011;20485;50.992;5.550;2023-06-26T05:34:24;8.40;;;3.78;;
33926;SDS011;20485;50.992;5.550;2023-06-26T05:36:54;18.63;;;4.18;;
33926;SDS011;20485;50.992;5.550;2023-06-26T05:39:22;15.98;;;4.68;;
33926;SDS011;20485;50.992;5.550;2023-06-26T05:41:48;10.43;;;4.10;;
33926;SDS011;20485;50.992;5.550;2023-06-26T05:44:14;13.00;;;3.67;;
33926;SDS011;20485;50.992;5.550;2023-06-26T05:46:40;14.18;;;3.92;;
33926;SDS011;20485;50.992;5.550;2023-06-26T05:49:05;14.52;;;4.00;;
33926;SDS011;20485;50.992;5.550;2023-06-26T05:51:31;16.52;;;3.70;;
33926;SDS011;20485;50.992;5.550;2023-06-26T05:53:57;12.85;;;4.47;;
33926;SDS011;20485;50.992;5.550;2023-06-26T05:56:23;11.25;;;3.88;;
33926;SDS011;20485;50.992;5.550;2023-06-26T05:58:49;14.35;;;4.18;;
33926;SDS011;20485;50.992;5.550;2023-06-26T06:01:17;19.85;;;4.70;;
33926;SDS011;20485;50.992;5.550;2023-06-26T06:03:42;20.48;;;4.35;;
33926;SDS011;20485;50.992;5.550;2023-06-26T06:06:08;17.90;;;4.28;;
33926;SDS011;20485;50.992;5.550;2023-06-26T06:08:33;15.10;;;3.15;;
33926;SDS011;20485;50.992;5.550;2023-06-26T06:10:59;15.57;;;3.83;;
33926;SDS011;20485;50.992;5.550;2023-06-26T06:13:26;15.13;;;3.83;;
33926;SDS011;20485;50.992;5.550;2023-06-26T06:15:51;20.35;;;4.40;;
33926;SDS011;20485;50.992;5.550;2023-06-26T06:18:17;16.23;;;4.25;;
33926;SDS011;20485;50.992;5.550;2023-06-26T06:20:42;17.10;;;3.88;;
33926;SDS011;20485;50.992;5.550;2023-06-26T06:23:08;13.20;;;3.40;;
33926;SDS011;20485;50.992;5.550;2023-06-26T06:25:34;16.00;;;3.63;;
33926;SDS011;20485;50.992;5.550;2023-06-26T06:27:59;18.63;;;4.80;;
33926;SDS011;20485;50.992;5.550;2023-06-26T06:30:25;16.73;;;3.80;;
33926;SDS011;20485;50.992;5.550;2023-06-26T06:32:53;15.35;;;4.15;;
33926;SDS011;20485;50.992;5.550;2023-06-26T06:35:19;14.40;;;3.38;;
33926;SDS011;20485;50.992;5.550;2023-06-26T06:37:44;17.13;;;3.97;;
33926;SDS011;20485;50.992;5.550;2023-06-26T06:40:10;17.10;;;3.95;;
33926;SDS011;20485;50.992;5.550;2023-06-26T06:42:36;19.80;;;4.03;;
33926;SDS011;20485;50.992;5.550;2023-06-26T06:45:02;12.05;;;3.47;;
33926;SDS011;20485;50.992;5.550;2023-06-26T06:47:28;17.25;;;3.72;;
33926;SDS011;20485;50.992;5.550;2023-06-26T06:49:54;18.75;;;4.13;;
33926;SDS011;20485;50.992;5.550;2023-06-26T06:52:20;13.85;;;3.30;;
33926;SDS011;20485;50.992;5.550;2023-06-26T06:54:53;13.93;;;3.90;;
33926;SDS011;20485;50.992;5.550;2023-06-26T06:57:20;19.83;;;3.75;;
33926;SDS011;20485;50.992;5.550;2023-06-26T06:59:46;19.13;;;3.42;;
33926;SDS011;20485;50.992;5.550;2023-06-26T07:02:18;21.10;;;4.00;;
33926;SDS011;20485;50.992;5.550;2023-06-26T07:04:44;17.17;;;3.80;;
33926;SDS011;20485;50.992;5.550;2023-06-26T07:07:09;15.60;;;3.92;;
33926;SDS011;20485;50.992;5.550;2023-06-26T07:09:38;13.27;;;3.42;;
33926;SDS011;20485;50.992;5.550;2023-06-26T07:12:04;12.10;;;3.45;;
33926;SDS011;20485;50.992;5.550;2023-06-26T07:14:30;17.60;;;4.38;;
33926;SDS011;20485;50.992;5.550;2023-06-26T07:16:55;13.35;;;3.55;;
33926;SDS011;20485;50.992;5.550;2023-06-26T07:19:21;16.95;;;3.45;;
33926;SDS011;20485;50.992;5.550;2023-06-26T07:21:47;11.55;;;3.63;;
33926;SDS011;20485;50.992;5.550;2023-06-26T07:24:13;15.05;;;3.47;;
33926;SDS011;20485;50.992;5.550;2023-06-26T07:26:39;24.48;;;3.80;;
33926;SDS011;20485;50.992;5.550;2023-06-26T07:29:04;20.90;;;4.05;;
33926;SDS011;20485;50.992;5.550;2023-06-26T07:31:30;15.02;;;3.47;;
33926;SDS011;20485;50.992;5.550;2023-06-26T07:33:56;13.38;;;3.45;;
33926;SDS011;20485;50.992;5.550;2023-06-26T07:36:21;18.40;;;4.10;;
33926;SDS011;20485;50.992;5.550;2023-06-26T07:38:47;17.08;;;3.75;;
33926;SDS011;20485;50.992;5.550;2023-06-26T07:41:13;12.48;;;3.22;;
33926;SDS011;20485;50.992;5.550;2023-06-26T07:43:39;14.70;;;3.55;;
33926;SDS011;20485;50.992;5.550;2023-06-26T07:46:04;11.27;;;3.70;;
33926;SDS011;20485;50.992;5.550;2023-06-26T07:48:30;10.40;;;3.00;;
33926;SDS011;20485;50.992;5.550;2023-06-26T07:50:55;18.08;;;3.17;;
33926;SDS011;20485;50.992;5.550;2023-06-26T07:53:21;10.27;;;3.17;;
33926;SDS011;20485;50.992;5.550;2023-06-26T07:55:47;11.00;;;2.95;;
33926;SDS011;20485;50.992;5.550;2023-06-26T07:58:12;19.60;;;3.50;;
33926;SDS011;20485;50.992;5.550;2023-06-26T08:00:38;16.17;;;3.17;;
33926;SDS011;20485;50.992;5.550;2023-06-26T08:03:05;10.30;;;2.92;;
33926;SDS011;20485;50.992;5.550;2023-06-26T08:05:31;12.30;;;3.33;;
33926;SDS011;20485;50.992;5.550;2023-06-26T08:07:56;18.75;;;3.30;;
33926;SDS011;20485;50.992;5.550;2023-06-26T08:10:22;12.93;;;2.92;;
33926;SDS011;20485;50.992;5.550;2023-06-26T08:12:47;12.90;;;2.80;;
33926;SDS011;20485;50.992;5.550;2023-06-26T08:15:15;14.43;;;3.47;;
33926;SDS011;20485;50.992;5.550;2023-06-26T08:17:41;11.88;;;3.20;;
33926;SDS011;20485;50.992;5.550;2023-06-26T08:20:07;22.88;;;4.30;;
33926;SDS011;20485;50.992;5.550;2023-06-26T08:22:33;9.55;;;2.75;;
33926;SDS011;20485;50.992;5.550;2023-06-26T08:24:59;10.82;;;3.20;;
33926;SDS011;20485;50.992;5.550;2023-06-26T08:27:24;12.93;;;3.45;;
33926;SDS011;20485;50.992;5.550;2023-06-26T08:29:50;9.63;;;2.92;;
33926;SDS011;20485;50.992;5.550;2023-06-26T08:32:16;18.45;;;3.65;;
33926;SDS011;20485;50.992;5.550;2023-06-26T08:34:41;15.63;;;3.10;;
33926;SDS011;20485;50.992;5.550;2023-06-26T08:37:07;9.52;;;3.03;;
33926;SDS011;20485;50.992;5.550;2023-06-26T08:39:34;14.77;;;3.35;;
33926;SDS011;20485;50.992;5.550;2023-06-26T08:42:00;14.65;;;3.60;;
33926;SDS011;20485;50.992;5.550;2023-06-26T08:44:25;13.02;;;3.42;;
33926;SDS011;20485;50.992;5.550;2023-06-26T08:46:51;9.60;;;2.33;;
33926;SDS011;20485;50.992;5.550;2023-06-26T08:49:20;13.63;;;3.05;;
33926;SDS011;20485;50.992;5.550;2023-06-26T08:52:02;13.68;;;2.40;;
33926;SDS011;20485;50.992;5.550;2023-06-26T08:54:36;10.20;;;2.28;;
33926;SDS011;20485;50.992;5.550;2023-06-26T08:57:10;10.13;;;2.70;;
33926;SDS011;20485;50.992;5.550;2023-06-26T08:59:37;14.75;;;2.47;;
33926;SDS011;20485;50.992;5.550;2023-06-26T09:02:03;12.80;;;3.00;;
33926;SDS011;20485;50.992;5.550;2023-06-26T09:04:29;7.93;;;2.40;;
33926;SDS011;20485;50.992;5.550;2023-06-26T09:06:55;6.80;;;2.20;;
33926;SDS011;20485;50.992;5.550;2023-06-26T09:09:21;10.63;;;2.40;;
33926;SDS011;20485;50.992;5.550;2023-06-26T09:11:46;11.55;;;2.50;;
33926;SDS011;20485;50.992;5.550;2023-06-26T09:14:13;10.77;;;2.63;;
33926;SDS011;20485;50.992;5.550;2023-06-26T09:16:39;9.98;;;2.17;;
33926;SDS011;20485;50.992;5.550;2023-06-26T09:19:09;11.18;;;2.28;;
33926;SDS011;20485;50.992;5.550;2023-06-26T09:21:37;9.48;;;2.05;;
33926;SDS011;20485;50.992;5.550;2023-06-26T09:24:04;8.55;;;2.28;;
33926;SDS011;20485;50.992;5.550;2023-06-26T09:26:32;13.30;;;2.47;;
33926;SDS011;20485;50.992;5.550;2023-06-26T09:28:59;8.05;;;2.20;;
33926;SDS011;20485;50.992;5.550;2023-06-26T09:31:25;18.25;;;3.45;;
33926;SDS011;20485;50.992;5.550;2023-06-26T09:33:51;14.68;;;2.38;;
33926;SDS011;20485;50.992;5.550;2023-06-26T09:36:23;6.90;;;2.47;;
33926;SDS011;20485;50.992;5.550;2023-06-26T09:38:50;7.97;;;2.22;;
33926;SDS011;20485;50.992;5.550;2023-06-26T09:41:16;8.43;;;1.90;;
33926;SDS011;20485;50.992;5.550;2023-06-26T09:43:49;5.15;;;1.55;;
33926;SDS011;20485;50.992;5.550;2023-06-26T09:46:16;9.73;;;1.80;;
33926;SDS011;20485;50.992;5.550;2023-06-26T09:48:48;6.93;;;1.90;;
33926;SDS011;20485;50.992;5.550;2023-06-26T09:51:16;7.10;;;1.80;;
33926;SDS011;20485;50.992;5.550;2023-06-26T09:53:42;7.00;;;1.70;;
33926;SDS011;20485;50.992;5.550;2023-06-26T09:56:11;4.60;;;1.48;;
33926;SDS011;20485;50.992;5.550;2023-06-26T10:01:08;4.78;;;1.70;;
33926;SDS011;20485;50.992;5.550;2023-06-26T10:03:34;10.55;;;1.77;;
33926;SDS011;20485;50.992;5.550;2023-06-26T10:06:00;7.47;;;1.80;;
33926;SDS011;20485;50.992;5.550;2023-06-26T10:08:28;6.35;;;1.58;;
33926;SDS011;20485;50.992;5.550;2023-06-26T10:10:54;5.45;;;1.70;;
33926;SDS011;20485;50.992;5.550;2023-06-26T10:13:26;4.07;;;1.45;;
33926;SDS011;20485;50.992;5.550;2023-06-26T10:15:58;5.32;;;1.25;;
33926;SDS011;20485;50.992;5.550;2023-06-26T10:18:25;5.75;;;1.52;;
33926;SDS011;20485;50.992;5.550;2023-06-26T10:20:53;5.32;;;1.20;;
33926;SDS011;20485;50.992;5.550;2023-06-26T10:23:21;8.80;;;1.63;;
33926;SDS011;20485;50.992;5.550;2023-06-26T10:25:50;6.13;;;1.02;;
33926;SDS011;20485;50.992;5.550;2023-06-26T10:28:17;3.50;;;1.05;;
33926;SDS011;20485;50.992;5.550;2023-06-26T10:30:45;5.13;;;1.80;;
33926;SDS011;20485;50.992;5.550;2023-06-26T10:33:14;7.75;;;1.45;;
33926;SDS011;20485;50.992;5.550;2023-06-26T10:35:43;6.95;;;1.40;;
33926;SDS011;20485;50.992;5.550;2023-06-26T10:38:10;5.78;;;1.17;;
33926;SDS011;20485;50.992;5.550;2023-06-26T10:40:42;4.97;;;1.20;;
33926;SDS011;20485;50.992;5.550;2023-06-26T10:43:13;7.00;;;1.40;;
33926;SDS011;20485;50.992;5.550;2023-06-26T10:45:46;5.65;;;1.17;;
33926;SDS011;20485;50.992;5.550;2023-06-26T10:48:20;6.95;;;1.02;;
33926;SDS011;20485;50.992;5.550;2023-06-26T10:50:49;10.07;;;1.58;;
33926;SDS011;20485;50.992;5.550;2023-06-26T10:53:16;3.38;;;1.38;;
33926;SDS011;20485;50.992;5.550;2023-06-26T10:56:04;6.22;;;1.40;;
33926;SDS011;20485;50.992;5.550;2023-06-26T11:04:05;6.47;;;1.48;;
33926;SDS011;20485;50.992;5.550;2023-06-26T11:06:32;4.97;;;1.33;;
33926;SDS011;20485;50.992;5.550;2023-06-26T11:14:20;13.65;;;1.10;;
33926;SDS011;20485;50.992;5.550;2023-06-26T11:16:46;5.30;;;1.02;;
33926;SDS011;20485;50.992;5.550;2023-06-26T11:19:13;10.82;;;1.08;;
33926;SDS011;20485;50.992;5.550;2023-06-26T11:21:39;5.35;;;1.40;;
33926;SDS011;20485;50.992;5.550;2023-06-26T11:24:06;3.85;;;1.13;;
33926;SDS011;20485;50.992;5.550;2023-06-26T11:26:37;4.32;;;0.95;;
33926;SDS011;20485;50.992;5.550;2023-06-26T11:29:04;2.25;;;1.00;;
33926;SDS011;20485;50.992;5.550;2023-06-26T11:31:30;6.10;;;1.42;;
33926;SDS011;20485;50.992;5.550;2023-06-26T11:33:58;8.48;;;1.40;;
33926;SDS011;20485;50.992;5.550;2023-06-26T11:36:26;8.95;;;1.42;;
33926;SDS011;20485;50.992;5.550;2023-06-26T11:38:52;6.03;;;1.40;;
33926;SDS011;20485;50.992;5.550;2023-06-26T11:41:22;8.02;;;1.25;;
33926;SDS011;20485;50.992;5.550;2023-06-26T11:44:04;3.38;;;1.20;;
33926;SDS011;20485;50.992;5.550;2023-06-26T11:46:34;9.77;;;1.17;;
33926;SDS011;20485;50.992;5.550;2023-06-26T11:49:04;9.90;;;1.40;;
33926;SDS011;20485;50.992;5.550;2023-06-26T11:51:33;8.63;;;1.83;;
33926;SDS011;20485;50.992;5.550;2023-06-26T11:54:01;4.78;;;1.05;;
33926;SDS011;20485;50.992;5.550;2023-06-26T11:56:30;3.92;;;1.52;;
33926;SDS011;20485;50.992;5.550;2023-06-26T11:59:03;4.03;;;1.00;;
33926;SDS011;20485;50.992;5.550;2023-06-26T12:03:59;7.18;;;1.60;;
33926;SDS011;20485;50.992;5.550;2023-06-26T12:06:29;6.47;;;1.10;;
33926;SDS011;20485;50.992;5.550;2023-06-26T12:08:56;6.50;;;1.52;;
33926;SDS011;20485;50.992;5.550;2023-06-26T12:11:24;3.75;;;1.35;;
33926;SDS011;20485;50.992;5.550;2023-06-26T12:13:50;6.20;;;1.58;;
33926;SDS011;20485;50.992;5.550;2023-06-26T12:16:16;11.45;;;1.83;;
33926;SDS011;20485;50.992;5.550;2023-06-26T12:18:42;4.13;;;1.35;;
33926;SDS011;20485;50.992;5.550;2023-06-26T12:21:08;4.18;;;1.23;;
33926;SDS011;20485;50.992;5.550;2023-06-26T12:23:57;11.55;;;1.70;;
33926;SDS011;20485;50.992;5.550;2023-06-26T12:26:25;3.05;;;1.08;;
33926;SDS011;20485;50.992;5.550;2023-06-26T12:28:51;5.70;;;1.30;;
33926;SDS011;20485;50.992;5.550;2023-06-26T12:31:19;8.02;;;1.35;;
33926;SDS011;20485;50.992;5.550;2023-06-26T12:33:46;5.97;;;1.38;;
33926;SDS011;20485;50.992;5.550;2023-06-26T12:36:14;4.28;;;1.50;;
33926;SDS011;20485;50.992;5.550;2023-06-26T12:38:44;10.63;;;1.23;;
33926;SDS011;20485;50.992;5.550;2023-06-26T12:41:14;6.53;;;1.30;;
33926;SDS011;20485;50.992;5.550;2023-06-26T12:43:41;11.27;;;1.48;;
33926;SDS011;20485;50.992;5.550;2023-06-26T12:46:07;7.60;;;1.63;;
33926;SDS011;20485;50.992;5.550;2023-06-26T12:48:40;4.18;;;1.30;;
33926;SDS011;20485;50.992;5.550;2023-06-26T12:51:09;4.75;;;1.20;;
33926;SDS011;20485;50.992;5.550;2023-06-26T12:53:36;11.50;;;1.75;;
33926;SDS011;20485;50.992;5.550;2023-06-26T12:56:04;8.27;;;1.55;;
33926;SDS011;20485;50.992;5.550;2023-06-26T12:58:31;6.65;;;1.02;;
33926;SDS011;20485;50.992;5.550;2023-06-26T13:00:56;9.90;;;2.25;;
33926;SDS011;20485;50.992;5.550;2023-06-26T13:03:22;4.05;;;1.35;;
33926;SDS011;20485;50.992;5.550;2023-06-26T13:05:48;4.40;;;1.08;;
33926;SDS011;20485;50.992;5.550;2023-06-26T13:08:14;13.40;;;1.23;;
33926;SDS011;20485;50.992;5.550;2023-06-26T13:10:42;5.65;;;1.27;;
33926;SDS011;20485;50.992;5.550;2023-06-26T13:13:09;7.15;;;1.52;;
33926;SDS011;20485;50.992;5.550;2023-06-26T13:15:35;8.68;;;1.23;;
33926;SDS011;20485;50.992;5.550;2023-06-26T13:18:01;8.82;;;1.48;;
33926;SDS011;20485;50.992;5.550;2023-06-26T13:20:26;5.20;;;1.13;;
33926;SDS011;20485;50.992;5.550;2023-06-26T13:22:53;4.72;;;1.38;;
33926;SDS011;20485;50.992;5.550;2023-06-26T13:25:19;7.35;;;1.30;;
33926;SDS011;20485;50.992;5.550;2023-06-26T13:27:46;8.23;;;1.40;;
33926;SDS011;20485;50.992;5.550;2023-06-26T13:30:12;2.28;;;1.08;;
33926;SDS011;20485;50.992;5.550;2023-06-26T13:32:37;4.90;;;2.03;;
33926;SDS011;20485;50.992;5.550;2023-06-26T13:35:03;8.10;;;2.05;;
33926;SDS011;20485;50.992;5.550;2023-06-26T13:37:29;5.75;;;1.98;;
33926;SDS011;20485;50.992;5.550;2023-06-26T13:39:55;4.47;;;1.73;;
33926;SDS011;20485;50.992;5.550;2023-06-26T13:42:23;3.10;;;1.15;;
33926;SDS011;20485;50.992;5.550;2023-06-26T13:44:48;8.95;;;1.40;;
33926;SDS011;20485;50.992;5.550;2023-06-26T13:47:14;7.22;;;1.55;;
33926;SDS011;20485;50.992;5.550;2023-06-26T13:49:41;3.70;;;1.52;;
33926;SDS011;20485;50.992;5.550;2023-06-26T13:52:07;3.35;;;1.40;;
33926;SDS011;20485;50.992;5.550;2023-06-26T13:54:36;12.05;;;1.48;;
33926;SDS011;20485;50.992;5.550;2023-06-26T13:57:04;6.35;;;1.40;;
33926;SDS011;20485;50.992;5.550;2023-06-26T13:59:31;3.13;;;1.02;;
33926;SDS011;20485;50.992;5.550;2023-06-26T14:01:56;6.85;;;1.70;;
33926;SDS011;20485;50.992;5.550;2023-06-26T14:04:22;5.32;;;1.30;;
33926;SDS011;20485;50.992;5.550;2023-06-26T14:06:48;9.02;;;1.85;;
33926;SDS011;20485;50.992;5.550;2023-06-26T14:09:13;6.85;;;1.50;;
33926;SDS011;20485;50.992;5.550;2023-06-26T14:11:39;7.85;;;1.83;;
33926;SDS011;20485;50.992;5.550;2023-06-26T14:14:05;5.38;;;1.70;;
33926;SDS011;20485;50.992;5.550;2023-06-26T14:16:31;7.00;;;1.90;;
33926;SDS011;20485;50.992;5.550;2023-06-26T14:18:57;8.20;;;2.05;;
33926;SDS011;20485;50.992;5.550;2023-06-26T14:21:23;3.85;;;1.65;;
33926;SDS011;20485;50.992;5.550;2023-06-26T14:23:49;3.80;;;1.45;;
33926;SDS011;20485;50.992;5.550;2023-06-26T14:26:14;5.75;;;1.60;;
33926;SDS011;20485;50.992;5.550;2023-06-26T14:28:40;9.75;;;1.50;;
33926;SDS011;20485;50.992;5.550;2023-06-26T14:31:06;7.75;;;1.55;;
33926;SDS011;20485;50.992;5.550;2023-06-26T14:33:32;20.00;;;1.77;;
33926;SDS011;20485;50.992;5.550;2023-06-26T14:35:57;9.07;;;1.30;;
33926;SDS011;20485;50.992;5.550;2023-06-26T14:38:23;3.65;;;1.17;;
33926;SDS011;20485;50.992;5.550;2023-06-26T14:40:48;3.25;;;1.30;;
33926;SDS011;20485;50.992;5.550;2023-06-26T14:43:14;3.30;;;1.25;;
33926;SDS011;20485;50.992;5.550;2023-06-26T14:45:40;6.63;;;1.13;;
33926;SDS011;20485;50.992;5.550;2023-06-26T14:48:06;5.38;;;1.52;;
33926;SDS011;20485;50.992;5.550;2023-06-26T14:50:32;6.53;;;1.50;;
33926;SDS011;20485;50.992;5.550;2023-06-26T14:52:58;3.80;;;1.30;;
33926;SDS011;20485;50.992;5.550;2023-06-26T14:55:24;2.92;;;1.33;;
33926;SDS011;20485;50.992;5.550;2023-06-26T14:57:49;7.55;;;1.83;;
33926;SDS011;20485;50.992;5.550;2023-06-26T15:00:15;7.28;;;1.50;;
33926;SDS011;20485;50.992;5.550;2023-06-26T15:02:42;5.10;;;1.35;;
33926;SDS011;20485;50.992;5.550;2023-06-26T15:05:07;7.90;;;1.52;;